Hatteras, NC (27943)

8:53 AM EST on December 22, 2014 (GMT -0500)
Mitchell | Change Station
CLOSE
Current Station
Airport
Location: Hatteras,
Elevation: 10 ft
Nearby Weather Stations

Elev 10 ft 35.23 °N, 75.62 °W | Updated 1 hour ago

Overcast
Overcast
56 °F
Feels Like 56 °F
N
9
Wind Variable Wind from East

Today
High -- | Low -- °F
--% Chance of Precip.
Yesterday
High -- | Low -- °F
Precip. -- in
7:07 AM 4:54 PM
New Moon, 0% visible
Pressure 30.06 in
Visibility 3.0 miles
Clouds Scattered Clouds 1900 ft
Mostly Cloudy 2600 ft
Overcast 4000 ft
Dew Point 56 °F
Humidity 100%
Rainfall 0.25 in
Snow Depth Not available.
UV 0 out of 12
Pollen .20 out of 12
Air Quality Not available.
Flu Activity Not available.
METAR KHSE 221251Z AUTO 10008KT 3SM BR SCT019 BKN026 OVC040 13/13 A3006 RMK AO2 SLP180 T01330133 TSNO $

More Conditions Fewer Conditions

Pressure 30.06 in
Visibility 3.0 miles
Clouds Scattered Clouds 1900 ft
Mostly Cloudy 2600 ft
Overcast 4000 ft
Dew Point 56 °F
Humidity 100%
Rainfall 0.25 in
Snow Depth Not available.
UV 0 out of 12
Pollen .20 out of 12
Air Quality Not available.
Flu Activity Not available.
METAR KHSE 221251Z AUTO 10008KT 3SM BR SCT019 BKN026 OVC040 13/13 A3006 RMK AO2 SLP180 T01330133 TSNO $

More Conditions Fewer Conditions

10-Day Weather Forecast

Almanac

Astronomy

Dec. 22, 2014 Rise Set
Actual Time
Civil Twilight
Nautical Twilight
Astronomical Twilight
Moon
Length of Visible Light
Length of Day
Tomorrow will be .
, % of the Moon is Illuminated

Today's Extremes

State Highs State Lows

Community

WunderPhotos

Upload Photos

1,779,599 photos uploaded!

WunderBlogs® & News

Nearby

Air Quality

  Air Quality AQ Index Pollutant
Not available.

Snow Depth

Station Depth Elevation

Earthquake Activity

City Distance Mag. Time & Date
Minimum magnitude displayed is 2.5.

Coastal Water Temperatures

Place Temperature

Nearby Weather Stations